Time;durP1;ratioP1;P1;durP2;ratioP2;P2;SDS_P1;SDS_P2;PMS_P1;PMS_P2;Temp;Humidity;BMP_temperature;BMP_pressure;BME280_temperature;BME280_humidity;BME280_pressure;Samples;Min_cycle;Max_cycle;Signal;HPM_P1;HPM_P2
2022/09/15 00:01:22;;;;;;;;;;;;;;;;;;5074952;28;20611;-62
2022/09/15 00:03:47;;;;;;;;;;;;;;;;;;5069848;28;19916;-62
2022/09/15 00:06:13;;;;;;;;;;;;;;;;;;5055615;28;20392;-62
2022/09/15 00:08:38;;;;;;;;;;;;;;;;;;5078410;28;19920;-62
2022/09/15 00:11:05;;;;;;;;;;;;;;;;;;5069435;28;20026;-62
2022/09/15 00:13:30;;;;;;;;;;;;;;;;;;5078641;28;19927;-62
2022/09/15 00:15:55;;;;;;;;;;;;;;;;;;5070728;28;19916;-62
2022/09/15 00:18:20;;;;;;;;;;;;;;;;;;5072493;28;19923;-63
2022/09/15 00:20:45;;;;;;;;;;;;;;;;;;5077004;28;19924;-62
2022/09/15 00:23:10;;;;;;;;;;;;;;;;;;5056374;28;19916;-62
2022/09/15 00:25:36;;;;;;;;;;;;;;;;;;5080665;28;20004;-63
2022/09/15 00:28:01;;;;;;;;;;;;;;;;;;5072274;28;20364;-62
2022/09/15 00:30:27;;;;;;;;;;;;;;;;;;5071788;28;19920;-62
2022/09/15 00:32:52;;;;;;;;;;;;;;;;;;5077564;28;19965;-62
2022/09/15 00:35:17;;;;;;;;;;;;;;;;;;5071789;28;19917;-62
2022/09/15 00:37:42;;;;;;;;;;;;;;;;;;5080385;28;20372;-62
2022/09/15 00:40:08;;;;;;;;;;;;;;;;;;5071185;28;19951;-62
2022/09/15 00:42:33;;;;;;;;;;;;;;;;;;5071659;28;19916;-62
2022/09/15 00:44:58;;;;;;;;;;;;;;;;;;5065235;28;20342;-62
2022/09/15 00:47:23;;;;;;;;;;;;;;;;;;5074194;28;20007;-62
2022/09/15 00:49:49;;;;;;;;;;;;;;;;;;5068334;28;20407;-62
2022/09/15 00:52:14;;;;;;;;;;;;;;;;;;5071105;28;19916;-62
2022/09/15 00:54:39;;;;;;;;;;;;;;;;;;5054525;28;19923;-62
2022/09/15 00:57:04;;;;;;;;;;;;;;;;;;5079154;28;20646;-62
2022/09/15 00:59:30;;;;;;;;;;;;;;;;;;5071675;28;19916;-62
2022/09/15 01:01:55;;;;;;;;;;;;;;;;;;5079269;28;19916;-62
2022/09/15 01:04:20;;;;;;;;;;;;;;;;;;5071168;28;20495;-62
2022/09/15 01:06:45;;;;;;;;;;;;;;;;;;5072842;28;19927;-62
2022/09/15 01:09:11;;;;;;;;;;;;;;;;;;5080753;28;20006;-62
2022/09/15 01:11:36;;;;;;;;;;;;;;;;;;5075151;28;20305;-62
2022/09/15 01:14:01;;;;;;;;;;;;;;;;;;5082713;28;19998;-62
2022/09/15 01:16:26;;;;;;;;;;;;;;;;;;5074656;28;19920;-62
2022/09/15 01:18:51;;;;;;;;;;;;;;;;;;5074311;28;19998;-64
2022/09/15 01:21:16;;;;;;;;;;;;;;;;;;5082278;28;20221;-62
2022/09/15 01:23:42;;;;;;;;;;;;;;;;;;5076408;28;19962;-62
2022/09/15 01:26:07;;;;;;;;;;;;;;;;;;5065883;28;20680;-62
2022/09/15 01:28:32;;;;;;;;;;;;;;;;;;5076286;28;19978;-62
2022/09/15 01:30:57;;;;;;;;;;;;;;;;;;5061350;28;19919;-62
2022/09/15 01:33:23;;;;;;;;;;;;;;;;;;5078999;28;19920;-62
2022/09/15 01:35:48;;;;;;;;;;;;;;;;;;5074844;28;20459;-62
2022/09/15 01:38:13;;;;;;;;;;;;;;;;;;5081944;28;19916;-62
2022/09/15 01:40:38;;;;;;;;;;;;;;;;;;5075090;28;19923;-62
2022/09/15 01:43:03;;;;;;;;;;;;;;;;;;5076020;28;19923;-62
2022/09/15 01:45:29;;;;;;;;;;;;;;;;;;5061095;28;20416;-62
2022/09/15 01:47:54;;;;;;;;;;;;;;;;;;5073674;28;19924;-62
2022/09/15 01:50:19;;;;;;;;;;;;;;;;;;5081199;28;20014;-62
2022/09/15 01:52:45;;;;;;;;;;;;;;;;;;5074757;28;20050;-62
2022/09/15 01:55:11;;;;;;;;;;;;;;;;;;5072752;28;20273;-62
2022/09/15 01:57:36;;;;;;;;;;;;;;;;;;5082838;28;19916;-62
2022/09/15 02:00:01;;;;;;;;;;;;;;;;;;5075648;28;19916;-62
2022/09/15 02:02:26;;;;;;;;;;;;;;;;;;5081426;28;19920;-62
2022/09/15 02:04:52;;;;;;;;;;;;;;;;;;5073504;28;19970;-62
2022/09/15 02:07:19;;;;;;;;;;;;;;;;;;5073017;28;20329;-62
2022/09/15 02:09:45;;;;;;;;;;;;;;;;;;5079578;28;19919;-62
2022/09/15 02:12:11;;;;;;;;;;;;;;;;;;5075474;28;19924;-62
2022/09/15 02:14:36;;;;;;;;;;;;;;;;;;5081541;28;19994;-62
2022/09/15 02:17:04;;;;;;;;;;;;;;;;;;5073760;28;19916;-62
2022/09/15 02:19:30;;;;;;;;;;;;;;;;;;5074065;28;19923;-62
2022/09/15 02:21:56;;;;;;;;;;;;;;;;;;5080918;28;19935;-62
2022/09/15 02:24:21;;;;;;;;;;;;;;;;;;5075650;28;19947;-62
2022/09/15 02:26:46;;;;;;;;;;;;;;;;;;5081656;28;19916;-62
2022/09/15 02:29:12;;;;;;;;;;;;;;;;;;5074004;28;20521;-61
2022/09/15 02:31:38;;;;;;;;;;;;;;;;;;5075045;28;19956;-62
2022/09/15 02:34:03;;;;;;;;;;;;;;;;;;5081973;28;19916;-61
2022/09/15 02:36:28;;;;;;;;;;;;;;;;;;5056608;28;19923;-62
2022/09/15 02:38:53;;;;;;;;;;;;;;;;;;5082264;28;19923;-61
2022/09/15 02:41:18;;;;;;;;;;;;;;;;;;5074310;28;19920;-62
2022/09/15 02:43:44;;;;;;;;;;;;;;;;;;5075392;28;20826;-62
2022/09/15 02:46:09;;;;;;;;;;;;;;;;;;5082551;28;19920;-62
2022/09/15 02:48:34;;;;;;;;;;;;;;;;;;5075073;28;20139;-62
2022/09/15 02:51:00;;;;;;;;;;;;;;;;;;5081303;28;20000;-62
2022/09/15 02:53:25;;;;;;;;;;;;;;;;;;5075460;28;19922;-62
2022/09/15 02:55:50;;;;;;;;;;;;;;;;;;5075353;28;19918;-61
2022/09/15 02:58:16;;;;;;;;;;;;;;;;;;5073753;28;20014;-62
2022/09/15 03:00:41;;;;;;;;;;;;;;;;;;5074419;28;20459;-62
2022/09/15 03:03:06;;;;;;;;;;;;;;;;;;5081698;28;19969;-62
2022/09/15 03:05:31;;;;;;;;;;;;;;;;;;5074105;28;20296;-62
2022/09/15 03:07:56;;;;;;;;;;;;;;;;;;5074280;28;19923;-62
2022/09/15 03:10:22;;;;;;;;;;;;;;;;;;5078749;28;19991;-63
2022/09/15 03:12:48;;;;;;;;;;;;;;;;;;5074352;28;19927;-62
2022/09/15 03:15:13;;;;;;;;;;;;;;;;;;5079317;28;20054;-62
2022/09/15 03:17:38;;;;;;;;;;;;;;;;;;5057287;28;19923;-63
2022/09/15 03:20:04;;;;;;;;;;;;;;;;;;5073925;28;20313;-62
2022/09/15 03:22:29;;;;;;;;;;;;;;;;;;5082810;28;19924;-62
2022/09/15 03:24:54;;;;;;;;;;;;;;;;;;5074555;28;19959;-62
2022/09/15 03:27:19;;;;;;;;;;;;;;;;;;5082410;28;19919;-62
2022/09/15 03:29:44;;;;;;;;;;;;;;;;;;5075197;28;19935;-62
2022/09/15 03:32:10;;;;;;;;;;;;;;;;;;5055626;28;20429;-62
2022/09/15 03:34:35;;;;;;;;;;;;;;;;;;5063583;28;20065;-62
2022/09/15 03:37:00;;;;;;;;;;;;;;;;;;5072902;28;19916;-62
2022/09/15 03:39:25;;;;;;;;;;;;;;;;;;5080697;28;19927;-62
2022/09/15 03:41:51;;;;;;;;;;;;;;;;;;5074239;28;19962;-62
2022/09/15 03:44:16;;;;;;;;;;;;;;;;;;5072720;28;19915;-62
2022/09/15 03:46:41;;;;;;;;;;;;;;;;;;5081178;28;19975;-62
2022/09/15 03:49:06;;;;;;;;;;;;;;;;;;5075257;28;19930;-62
2022/09/15 03:51:31;;;;;;;;;;;;;;;;;;5081800;28;19920;-62
2022/09/15 03:53:57;;;;;;;;;;;;;;;;;;5075432;28;19916;-62
2022/09/15 03:56:22;;;;;;;;;;;;;;;;;;5074214;28;19922;-62
2022/09/15 03:58:48;;;;;;;;;;;;;;;;;;5080695;28;19916;-62
2022/09/15 04:01:13;;;;;;;;;;;;;;;;;;5074609;28;19916;-62
2022/09/15 04:03:38;;;;;;;;;;;;;;;;;;5080738;28;20770;-63
2022/09/15 04:06:03;;;;;;;;;;;;;;;;;;5075243;28;19916;-62
2022/09/15 04:08:28;;;;;;;;;;;;;;;;;;5073235;28;19924;-62
2022/09/15 04:10:54;;;;;;;;;;;;;;;;;;5079778;28;19989;-62
2022/09/15 04:13:19;;;;;;;;;;;;;;;;;;5074094;28;19943;-62
2022/09/15 04:15:44;;;;;;;;;;;;;;;;;;5081008;28;20269;-62
2022/09/15 04:18:09;;;;;;;;;;;;;;;;;;5054626;28;20012;-62
2022/09/15 04:20:34;;;;;;;;;;;;;;;;;;5072736;28;19916;-62
2022/09/15 04:23:00;;;;;;;;;;;;;;;;;;5082890;28;20535;-62
2022/09/15 04:25:26;;;;;;;;;;;;;;;;;;5073944;28;20140;-62
2022/09/15 04:27:51;;;;;;;;;;;;;;;;;;5081153;28;19928;-62
2022/09/15 04:30:16;;;;;;;;;;;;;;;;;;5072773;28;19920;-62
2022/09/15 04:32:42;;;;;;;;;;;;;;;;;;5072435;28;20615;-62
2022/09/15 04:35:07;;;;;;;;;;;;;;;;;;5082986;28;19970;-62
2022/09/15 04:37:32;;;;;;;;;;;;;;;;;;5073865;28;19916;-62
2022/09/15 04:39:58;;;;;;;;;;;;;;;;;;5080052;28;20265;-63
2022/09/15 04:42:23;;;;;;;;;;;;;;;;;;5058497;28;20354;-62
2022/09/15 04:44:48;;;;;;;;;;;;;;;;;;5076669;28;19920;-62
2022/09/15 04:47:13;;;;;;;;;;;;;;;;;;5082817;28;19959;-63
2022/09/15 04:49:39;;;;;;;;;;;;;;;;;;5076444;28;20073;-62
2022/09/15 04:52:04;;;;;;;;;;;;;;;;;;5084459;28;20360;-63
2022/09/15 04:54:29;;;;;;;;;;;;;;;;;;5074590;28;19924;-62
2022/09/15 04:56:54;;;;;;;;;;;;;;;;;;5075703;28;19968;-62
2022/09/15 04:59:20;;;;;;;;;;;;;;;;;;5084107;28;19920;-63
2022/09/15 05:01:45;;;;;;;;;;;;;;;;;;5076703;28;19927;-62
2022/09/15 05:04:10;;;;;;;;;;;;;;;;;;5085859;28;20368;-62
2022/09/15 05:06:35;;;;;;;;;;;;;;;;;;5075431;28;20002;-62
2022/09/15 05:09:00;;;;;;;;;;;;;;;;;;5074816;28;19931;-63
2022/09/15 05:11:26;;;;;;;;;;;;;;;;;;5079022;28;19961;-62
2022/09/15 05:13:51;;;;;;;;;;;;;;;;;;5075564;28;20687;-62
2022/09/15 05:16:16;;;;;;;;;;;;;;;;;;5086168;28;19916;-62
2022/09/15 05:18:42;;;;;;;;;;;;;;;;;;5078817;28;20563;-62
2022/09/15 05:21:07;;;;;;;;;;;;;;;;;;5078151;28;20366;-64
2022/09/15 05:23:32;;;;;;;;;;;;;;;;;;5086360;28;19952;-63
2022/09/15 05:25:57;;;;;;;;;;;;;;;;;;5078755;28;19922;-62
2022/09/15 05:28:23;;;;;;;;;;;;;;;;;;5068892;28;19920;-62
2022/09/15 05:30:50;;;;;;;;;;;;;;;;;;5078095;28;19999;-61
2022/09/15 05:33:16;;;;;;;;;;;;;;;;;;5077526;28;19920;-60
2022/09/15 05:35:41;;;;;;;;;;;;;;;;;;5084980;28;19935;-58
2022/09/15 05:38:06;;;;;;;;;;;;;;;;;;5078816;28;19916;-58
2022/09/15 05:40:31;;;;;;;;;;;;;;;;;;5085912;28;20593;-59
2022/09/15 05:42:56;;;;;;;;;;;;;;;;;;5076353;28;19923;-58
2022/09/15 05:45:21;;;;;;;;;;;;;;;;;;5061268;28;19916;-58
2022/09/15 05:47:47;;;;;;;;;;;;;;;;;;5070158;28;19927;-57
2022/09/15 05:50:13;;;;;;;;;;;;;;;;;;5081205;28;20301;-58
2022/09/15 05:52:39;;;;;;;;;;;;;;;;;;5084341;28;19923;-58
2022/09/15 05:55:04;;;;;;;;;;;;;;;;;;5075001;28;19916;-58
2022/09/15 05:57:29;;;;;;;;;;;;;;;;;;5084474;28;20419;-59
2022/09/15 05:59:54;;;;;;;;;;;;;;;;;;5083583;28;19916;-62
2022/09/15 06:02:19;;;;;;;;;;;;;;;;;;5085564;28;19916;-62
2022/09/15 06:04:44;;;;;;;;;;;;;;;;;;5088385;28;19969;-61
2022/09/15 06:07:10;;;;;;;;;;;;;;;;;;5070938;28;20371;-59
2022/09/15 06:09:35;;;;;;;;;;;;;;;;;;5087282;28;19959;-59
2022/09/15 06:12:00;;;;;;;;;;;;;;;;;;5085624;28;19962;-59
2022/09/15 06:14:25;;;;;;;;;;;;;;;;;;5086170;28;20031;-60
2022/09/15 06:16:50;;;;;;;;;;;;;;;;;;5084579;28;19916;-59
2022/09/15 06:19:16;;;;;;;;;;;;;;;;;;5084134;28;20573;-60
2022/09/15 06:21:41;;;;;;;;;;;;;;;;;;5084376;28;19936;-60
2022/09/15 06:24:06;;;;;;;;;;;;;;;;;;5086421;28;20055;-61
2022/09/15 06:26:32;;;;;;;;;;;;;;;;;;5086958;28;19989;-60
2022/09/15 06:28:57;;;;;;;;;;;;;;;;;;5085684;28;20262;-59
2022/09/15 06:31:22;;;;;;;;;;;;;;;;;;5085023;28;19920;-60
2022/09/15 06:33:47;;;;;;;;;;;;;;;;;;5084152;28;20285;-59
2022/09/15 06:36:13;;;;;;;;;;;;;;;;;;5084959;28;20011;-59
2022/09/15 06:38:38;;;;;;;;;;;;;;;;;;5085741;28;19919;-59
2022/09/15 06:41:03;;;;;;;;;;;;;;;;;;5087165;28;19996;-59
2022/09/15 06:43:28;;;;;;;;;;;;;;;;;;5086057;28;19916;-60
2022/09/15 06:45:53;;;;;;;;;;;;;;;;;;5087206;28;19959;-60
2022/09/15 06:48:19;;;;;;;;;;;;;;;;;;5085448;28;20507;-60
2022/09/15 06:50:44;;;;;;;;;;;;;;;;;;5083884;28;19924;-59
2022/09/15 06:53:09;;;;;;;;;;;;;;;;;;5084682;28;20689;-59
2022/09/15 06:55:34;;;;;;;;;;;;;;;;;;5087164;28;19916;-60
2022/09/15 06:57:59;;;;;;;;;;;;;;;;;;5087162;28;20019;-60
2022/09/15 07:00:24;;;;;;;;;;;;;;;;;;5085836;28;20519;-60
2022/09/15 07:02:50;;;;;;;;;;;;;;;;;;5085569;28;19955;-60
2022/09/15 07:05:15;;;;;;;;;;;;;;;;;;5071770;28;19920;-59
2022/09/15 07:07:40;;;;;;;;;;;;;;;;;;5085516;28;19922;-60
2022/09/15 07:10:05;;;;;;;;;;;;;;;;;;5065432;28;20356;-60
2022/09/15 07:12:31;;;;;;;;;;;;;;;;;;5077750;28;20003;-59
2022/09/15 07:14:56;;;;;;;;;;;;;;;;;;5085709;28;19924;-59
2022/09/15 07:17:21;;;;;;;;;;;;;;;;;;5087621;28;20330;-59
2022/09/15 07:19:47;;;;;;;;;;;;;;;;;;5084338;28;19922;-59
2022/09/15 07:22:12;;;;;;;;;;;;;;;;;;5064205;28;19916;-59
2022/09/15 07:24:37;;;;;;;;;;;;;;;;;;5085120;28;19916;-59
2022/09/15 07:27:02;;;;;;;;;;;;;;;;;;5084717;28;20410;-58
2022/09/15 07:29:27;;;;;;;;;;;;;;;;;;5087113;28;19920;-59
2022/09/15 07:31:53;;;;;;;;;;;;;;;;;;5087672;28;19920;-58
2022/09/15 07:34:18;;;;;;;;;;;;;;;;;;5086843;28;19923;-59
2022/09/15 07:36:43;;;;;;;;;;;;;;;;;;5067226;28;19916;-58
2022/09/15 07:39:08;;;;;;;;;;;;;;;;;;5085157;28;20022;-59
2022/09/15 07:41:34;;;;;;;;;;;;;;;;;;5085705;28;20002;-59
2022/09/15 07:43:59;;;;;;;;;;;;;;;;;;5087078;28;19924;-58
2022/09/15 07:46:24;;;;;;;;;;;;;;;;;;5085836;28;20376;-59
2022/09/15 07:48:49;;;;;;;;;;;;;;;;;;5084385;28;20101;-58
2022/09/15 07:51:15;;;;;;;;;;;;;;;;;;5084437;28;20347;-59
2022/09/15 07:53:40;;;;;;;;;;;;;;;;;;5066881;28;20387;-59
2022/09/15 07:56:05;;;;;;;;;;;;;;;;;;5086789;28;20360;-59
2022/09/15 07:58:30;;;;;;;;;;;;;;;;;;5086807;28;19923;-61
2022/09/15 08:00:55;;;;;;;;;;;;;;;;;;5068919;28;19968;-59
2022/09/15 08:03:21;;;;;;;;;;;;;;;;;;5085174;28;20253;-59
2022/09/15 08:05:46;;;;;;;;;;;;;;;;;;5086485;28;19920;-59
2022/09/15 08:08:11;;;;;;;;;;;;;;;;;;5084336;28;20019;-58
2022/09/15 08:10:36;;;;;;;;;;;;;;;;;;5084023;28;20348;-58
2022/09/15 08:13:01;;;;;;;;;;;;;;;;;;5084942;28;19927;-58
2022/09/15 08:15:27;;;;;;;;;;;;;;;;;;5086276;28;19961;-58
2022/09/15 08:17:52;;;;;;;;;;;;;;;;;;5082301;28;19933;-59
2022/09/15 08:20:17;;;;;;;;;;;;;;;;;;5083909;28;19916;-59
2022/09/15 08:22:44;;;;;;;;;;;;;;;;;;5084372;28;19970;-59
2022/09/15 08:25:09;;;;;;;;;;;;;;;;;;5085327;28;19916;-59
2022/09/15 08:27:34;;;;;;;;;;;;;;;;;;5086893;28;19922;-59
2022/09/15 08:30:00;;;;;;;;;;;;;;;;;;5086296;28;19927;-58
2022/09/15 08:32:25;;;;;;;;;;;;;;;;;;5086675;28;20303;-59
2022/09/15 08:34:50;;;;;;;;;;;;;;;;;;5086553;28;19916;-58
2022/09/15 08:37:15;;;;;;;;;;;;;;;;;;5086985;28;19922;-58
2022/09/15 08:39:40;;;;;;;;;;;;;;;;;;5084684;28;19969;-57
2022/09/15 08:42:05;;;;;;;;;;;;;;;;;;5084204;28;19922;-59
2022/09/15 08:44:31;;;;;;;;;;;;;;;;;;5084232;28;19916;-58
2022/09/15 08:46:56;;;;;;;;;;;;;;;;;;5085489;28;19916;-59
2022/09/15 08:49:22;;;;;;;;;;;;;;;;;;5086216;28;19962;-59
2022/09/15 08:51:47;;;;;;;;;;;;;;;;;;5086674;28;19924;-58
2022/09/15 08:54:12;;;;;;;;;;;;;;;;;;5086348;28;19919;-60
2022/09/15 08:56:37;;;;;;;;;;;;;;;;;;5084117;28;19920;-59
2022/09/15 08:59:03;;;;;;;;;;;;;;;;;;5080850;28;20295;-59
2022/09/15 09:01:31;;;;;;;;;;;;;;;;;;5069386;28;19923;-59
2022/09/15 09:03:57;;;;;;;;;;;;;;;;;;5083188;28;20242;-59
2022/09/15 09:06:22;;;;;;;;;;;;;;;;;;5084221;28;19944;-58
2022/09/15 09:08:47;;;;;;;;;;;;;;;;;;5085644;28;19984;-58
2022/09/15 09:11:12;;;;;;;;;;;;;;;;;;5086279;28;19913;-59
2022/09/15 09:13:37;;;;;;;;;;;;;;;;;;5084259;28;19920;-58
2022/09/15 09:16:03;;;;;;;;;;;;;;;;;;5083922;28;19920;-58
2022/09/15 09:18:28;;;;;;;;;;;;;;;;;;5086383;28;20005;-58
2022/09/15 09:20:53;;;;;;;;;;;;;;;;;;5085230;28;20713;-58
2022/09/15 09:23:18;;;;;;;;;;;;;;;;;;5083329;28;19998;-59
2022/09/15 09:25:44;;;;;;;;;;;;;;;;;;5070891;28;19963;-58
2022/09/15 09:28:09;;;;;;;;;;;;;;;;;;5085832;28;19920;-58
2022/09/15 09:30:34;;;;;;;;;;;;;;;;;;5085558;28;20399;-59
2022/09/15 09:32:59;;;;;;;;;;;;;;;;;;5076984;28;19912;-59
2022/09/15 09:35:24;;;;;;;;;;;;;;;;;;5086442;28;20155;-58
2022/09/15 09:37:49;;;;;;;;;;;;;;;;;;5085917;28;19916;-59
2022/09/15 09:40:15;;;;;;;;;;;;;;;;;;5086341;28;19922;-59
2022/09/15 09:42:40;;;;;;;;;;;;;;;;;;5085112;28;19923;-59
2022/09/15 09:45:06;;;;;;;;;;;;;;;;;;5086475;28;19974;-59
2022/09/15 09:47:31;;;;;;;;;;;;;;;;;;5086054;28;19956;-59
2022/09/15 09:49:56;;;;;;;;;;;;;;;;;;5085681;28;20375;-60
2022/09/15 09:52:22;;;;;;;;;;;;;;;;;;5086954;28;19943;-58
2022/09/15 09:54:47;;;;;;;;;;;;;;;;;;5086452;28;20355;-59
2022/09/15 09:57:12;;;;;;;;;;;;;;;;;;5086022;28;19961;-58
2022/09/15 09:59:37;;;;;;;;;;;;;;;;;;5086491;28;19912;-58
2022/09/15 10:02:02;;;;;;;;;;;;;;;;;;5080480;28;19918;-58
2022/09/15 10:04:28;;;;;;;;;;;;;;;;;;5083947;28;20614;-58
2022/09/15 10:06:53;;;;;;;;;;;;;;;;;;5064972;28;19916;-58
2022/09/15 10:09:18;;;;;;;;;;;;;;;;;;5083701;28;20038;-58
2022/09/15 10:11:43;;;;;;;;;;;;;;;;;;5084115;28;20393;-58
2022/09/15 10:14:09;;;;;;;;;;;;;;;;;;5066177;28;20002;-59
2022/09/15 10:16:34;;;;;;;;;;;;;;;;;;5085854;28;20322;-59
2022/09/15 10:18:59;;;;;;;;;;;;;;;;;;5084564;28;20019;-58
2022/09/15 10:21:25;;;;;;;;;;;;;;;;;;5085554;28;20355;-59
2022/09/15 10:23:50;;;;;;;;;;;;;;;;;;5086002;28;19923;-59
2022/09/15 10:26:15;;;;;;;;;;;;;;;;;;5085313;28;19916;-59
2022/09/15 10:28:40;;;;;;;;;;;;;;;;;;5070380;28;19926;-59
2022/09/15 10:31:06;;;;;;;;;;;;;;;;;;5085141;28;19920;-60
2022/09/15 10:33:31;;;;;;;;;;;;;;;;;;5084183;28;20622;-58
2022/09/15 10:35:56;;;;;;;;;;;;;;;;;;5084540;28;19920;-59
2022/09/15 10:38:21;;;;;;;;;;;;;;;;;;5083124;28;20433;-58
2022/09/15 10:40:46;;;;;;;;;;;;;;;;;;5083812;28;20474;-59
2022/09/15 10:43:12;;;;;;;;;;;;;;;;;;5083932;28;19922;-59
2022/09/15 10:45:37;;;;;;;;;;;;;;;;;;5084512;28;19931;-59
2022/09/15 10:48:02;;;;;;;;;;;;;;;;;;5085552;28;19951;-59
2022/09/15 10:50:28;;;;;;;;;;;;;;;;;;5085574;28;19920;-58
2022/09/15 10:52:53;;;;;;;;;;;;;;;;;;5086601;28;20379;-59
2022/09/15 10:55:18;;;;;;;;;;;;;;;;;;5084380;28;19916;-58
2022/09/15 10:57:43;;;;;;;;;;;;;;;;;;5085791;28;20456;-58
2022/09/15 11:00:09;;;;;;;;;;;;;;;;;;5085694;28;20888;-58
2022/09/15 11:02:34;;;;;;;;;;;;;;;;;;5085520;28;19916;-59
2022/09/15 11:04:59;;;;;;;;;;;;;;;;;;5084896;28;19916;-58
2022/09/15 11:07:25;;;;;;;;;;;;;;;;;;5067529;28;19923;-59
2022/09/15 11:09:50;;;;;;;;;;;;;;;;;;5084920;28;19923;-57
2022/09/15 11:12:15;;;;;;;;;;;;;;;;;;5085216;28;20348;-58
2022/09/15 11:14:41;;;;;;;;;;;;;;;;;;5084665;28;19920;-58
2022/09/15 11:17:06;;;;;;;;;;;;;;;;;;5085125;28;20464;-58
2022/09/15 11:19:31;;;;;;;;;;;;;;;;;;5088294;28;19916;-58
2022/09/15 11:21:56;;;;;;;;;;;;;;;;;;5084620;28;19916;-58
2022/09/15 11:24:21;;;;;;;;;;;;;;;;;;5083565;28;19923;-59
2022/09/15 11:26:46;;;;;;;;;;;;;;;;;;5084866;28;19923;-58
2022/09/15 11:29:12;;;;;;;;;;;;;;;;;;5084865;28;20102;-58
2022/09/15 11:31:38;;;;;;;;;;;;;;;;;;5083810;28;20780;-59
2022/09/15 11:34:03;;;;;;;;;;;;;;;;;;5084294;28;19912;-59
2022/09/15 11:36:28;;;;;;;;;;;;;;;;;;5083256;28;20317;-58
2022/09/15 11:38:53;;;;;;;;;;;;;;;;;;5067105;28;20282;-59
2022/09/15 11:41:19;;;;;;;;;;;;;;;;;;5083852;28;19916;-59
2022/09/15 11:43:45;;;;;;;;;;;;;;;;;;5085148;28;20007;-59
2022/09/15 11:46:10;;;;;;;;;;;;;;;;;;5085467;28;19956;-59
2022/09/15 11:48:35;;;;;;;;;;;;;;;;;;5084752;28;19967;-58
2022/09/15 11:51:00;;;;;;;;;;;;;;;;;;5070988;28;20738;-58
2022/09/15 11:53:26;;;;;;;;;;;;;;;;;;5085101;28;19920;-59
2022/09/15 11:55:51;;;;;;;;;;;;;;;;;;5085797;28;19968;-59
2022/09/15 11:58:18;;;;;;;;;;;;;;;;;;5086544;28;19923;-59
2022/09/15 12:00:43;;;;;;;;;;;;;;;;;;5086745;28;20589;-59
2022/09/15 12:03:08;;;;;;;;;;;;;;;;;;5085431;28;19920;-58
2022/09/15 12:05:34;;;;;;;;;;;;;;;;;;5085018;28;20404;-58
2022/09/15 12:07:59;;;;;;;;;;;;;;;;;;5083461;28;19920;-59
2022/09/15 12:10:24;;;;;;;;;;;;;;;;;;5085921;28;20443;-59
2022/09/15 12:12:50;;;;;;;;;;;;;;;;;;5086794;28;19916;-58
2022/09/15 12:15:15;;;;;;;;;;;;;;;;;;5087504;28;19934;-58
2022/09/15 12:17:41;;;;;;;;;;;;;;;;;;5052386;28;19955;-58
2022/09/15 12:20:06;;;;;;;;;;;;;;;;;;5082830;28;19928;-59
2022/09/15 12:22:31;;;;;;;;;;;;;;;;;;5082647;28;19920;-59
2022/09/15 12:24:57;;;;;;;;;;;;;;;;;;5083025;28;19920;-58
2022/09/15 12:27:22;;;;;;;;;;;;;;;;;;5083259;28;19988;-59
2022/09/15 12:29:47;;;;;;;;;;;;;;;;;;5083558;28;19924;-58
2022/09/15 12:32:13;;;;;;;;;;;;;;;;;;5083191;28;19920;-58
2022/09/15 12:34:38;;;;;;;;;;;;;;;;;;5065199;28;19916;-58
2022/09/15 12:37:03;;;;;;;;;;;;;;;;;;5083945;28;20808;-58
2022/09/15 12:39:28;;;;;;;;;;;;;;;;;;5083847;28;20038;-59
2022/09/15 12:41:53;;;;;;;;;;;;;;;;;;5082738;28;19999;-59
2022/09/15 12:44:19;;;;;;;;;;;;;;;;;;5064120;28;20439;-59
2022/09/15 12:46:44;;;;;;;;;;;;;;;;;;5080791;28;20292;-58
2022/09/15 12:49:09;;;;;;;;;;;;;;;;;;5082559;28;19920;-58
2022/09/15 12:51:34;;;;;;;;;;;;;;;;;;5082951;28;19931;-60
2022/09/15 12:54:01;;;;;;;;;;;;;;;;;;5080998;28;19916;-58
2022/09/15 12:56:26;;;;;;;;;;;;;;;;;;5083954;28;20214;-58
2022/09/15 12:58:51;;;;;;;;;;;;;;;;;;5083717;28;19916;-58
2022/09/15 13:01:17;;;;;;;;;;;;;;;;;;5082693;28;19967;-58
2022/09/15 13:03:42;;;;;;;;;;;;;;;;;;5083561;28;20365;-58
2022/09/15 13:06:07;;;;;;;;;;;;;;;;;;5087178;28;20051;-58
2022/09/15 13:08:32;;;;;;;;;;;;;;;;;;5088106;28;19923;-58
2022/09/15 13:10:58;;;;;;;;;;;;;;;;;;5086452;28;20007;-58
2022/09/15 13:13:23;;;;;;;;;;;;;;;;;;5087537;28;19920;-58
2022/09/15 13:15:48;;;;;;;;;;;;;;;;;;5087161;28;20519;-58
2022/09/15 13:18:13;;;;;;;;;;;;;;;;;;5087265;28;20056;-58
2022/09/15 13:20:38;;;;;;;;;;;;;;;;;;5087433;28;19931;-58
2022/09/15 13:23:03;;;;;;;;;;;;;;;;;;5088768;28;20348;-58
2022/09/15 13:25:29;;;;;;;;;;;;;;;;;;5087973;28;19923;-58
2022/09/15 13:27:54;;;;;;;;;;;;;;;;;;5088234;28;19912;-59
2022/09/15 13:30:19;;;;;;;;;;;;;;;;;;5087566;28;19920;-59
2022/09/15 13:32:44;;;;;;;;;;;;;;;;;;5087850;28;20400;-59
2022/09/15 13:35:10;;;;;;;;;;;;;;;;;;5087696;28;19916;-59
2022/09/15 13:37:35;;;;;;;;;;;;;;;;;;5088385;28;20307;-59
2022/09/15 13:40:00;;;;;;;;;;;;;;;;;;5089581;28;19923;-59
2022/09/15 13:42:26;;;;;;;;;;;;;;;;;;5071528;28;20348;-59
2022/09/15 13:44:51;;;;;;;;;;;;;;;;;;5089313;28;20435;-59
2022/09/15 13:47:16;;;;;;;;;;;;;;;;;;5089761;28;19908;-58
2022/09/15 13:49:41;;;;;;;;;;;;;;;;;;5086763;28;19920;-59
2022/09/15 13:52:07;;;;;;;;;;;;;;;;;;5088014;28;19931;-59
2022/09/15 13:54:33;;;;;;;;;;;;;;;;;;5070034;28;20359;-59
2022/09/15 13:56:58;;;;;;;;;;;;;;;;;;5089757;28;20379;-58
2022/09/15 13:59:23;;;;;;;;;;;;;;;;;;5087886;28;19916;-59
2022/09/15 14:01:48;;;;;;;;;;;;;;;;;;5071285;28;19916;-59
2022/09/15 14:04:14;;;;;;;;;;;;;;;;;;5089520;28;20314;-59
2022/09/15 14:06:39;;;;;;;;;;;;;;;;;;5087769;28;20414;-59
2022/09/15 14:09:04;;;;;;;;;;;;;;;;;;5086473;28;20475;-59
2022/09/15 14:11:29;;;;;;;;;;;;;;;;;;5087668;28;19970;-59
2022/09/15 14:13:54;;;;;;;;;;;;;;;;;;5088594;28;19927;-59
2022/09/15 14:16:22;;;;;;;;;;;;;;;;;;5084135;28;20065;-59
2022/09/15 14:18:47;;;;;;;;;;;;;;;;;;5086236;28;19916;-59
2022/09/15 14:21:12;;;;;;;;;;;;;;;;;;5085870;28;19958;-60
2022/09/15 14:23:37;;;;;;;;;;;;;;;;;;5067910;28;20285;-60
2022/09/15 14:26:03;;;;;;;;;;;;;;;;;;5085503;28;19924;-60
2022/09/15 14:28:31;;;;;;;;;;;;;;;;;;5085711;28;19920;-61
2022/09/15 14:30:56;;;;;;;;;;;;;;;;;;5085844;28;20007;-60
2022/09/15 14:33:22;;;;;;;;;;;;;;;;;;5085940;28;20778;-60
2022/09/15 14:35:47;;;;;;;;;;;;;;;;;;5084852;28;19916;-60
2022/09/15 14:38:12;;;;;;;;;;;;;;;;;;5085494;28;19916;-60
2022/09/15 14:40:37;;;;;;;;;;;;;;;;;;5085466;28;19927;-60
2022/09/15 14:43:03;;;;;;;;;;;;;;;;;;5085914;28;19923;-61
2022/09/15 14:45:30;;;;;;;;;;;;;;;;;;5085797;28;19923;-61
2022/09/15 14:47:56;;;;;;;;;;;;;;;;;;5085249;28;20379;-61
2022/09/15 14:50:21;;;;;;;;;;;;;;;;;;5085678;28;19912;-61
2022/09/15 14:52:47;;;;;;;;;;;;;;;;;;5085614;28;20164;-61
2022/09/15 14:55:12;;;;;;;;;;;;;;;;;;5085285;28;19916;-61
2022/09/15 14:57:37;;;;;;;;;;;;;;;;;;5085136;28;19967;-61
2022/09/15 15:00:02;;;;;;;;;;;;;;;;;;5082049;28;19985;-61
2022/09/15 15:02:28;;;;;;;;;;;;;;;;;;5078561;28;19916;-61
2022/09/15 15:04:53;;;;;;;;;;;;;;;;;;5078366;28;19976;-61
2022/09/15 15:07:21;;;;;;;;;;;;;;;;;;5083238;28;20448;-61
2022/09/15 15:09:47;;;;;;;;;;;;;;;;;;5083003;28;19916;-61
2022/09/15 15:12:12;;;;;;;;;;;;;;;;;;5081814;28;19943;-62
2022/09/15 15:14:38;;;;;;;;;;;;;;;;;;5064805;28;20014;-61
2022/09/15 15:17:06;;;;;;;;;;;;;;;;;;5083372;28;19959;-61
2022/09/15 15:19:32;;;;;;;;;;;;;;;;;;5084833;28;19916;-61
2022/09/15 15:21:57;;;;;;;;;;;;;;;;;;5087030;28;20706;-61
2022/09/15 15:24:22;;;;;;;;;;;;;;;;;;5086899;28;19912;-62
2022/09/15 15:26:48;;;;;;;;;;;;;;;;;;5085216;28;20273;-62
2022/09/15 15:29:13;;;;;;;;;;;;;;;;;;5085880;28;19927;-62
2022/09/15 15:31:39;;;;;;;;;;;;;;;;;;5085630;28;19966;-62
2022/09/15 15:34:04;;;;;;;;;;;;;;;;;;5084084;28;19950;-62
2022/09/15 15:36:29;;;;;;;;;;;;;;;;;;5083583;28;19916;-62
2022/09/15 15:38:54;;;;;;;;;;;;;;;;;;5080189;28;19923;-62
2022/09/15 15:41:19;;;;;;;;;;;;;;;;;;5075957;28;20086;-62
2022/09/15 15:43:45;;;;;;;;;;;;;;;;;;5079604;28;19926;-62
2022/09/15 15:46:10;;;;;;;;;;;;;;;;;;5073236;28;19920;-63
2022/09/15 15:48:35;;;;;;;;;;;;;;;;;;5074097;28;19920;-61
2022/09/15 15:51:00;;;;;;;;;;;;;;;;;;5076827;28;20277;-61
2022/09/15 15:53:26;;;;;;;;;;;;;;;;;;5079613;28;20010;-62
2022/09/15 15:55:52;;;;;;;;;;;;;;;;;;5078129;28;20280;-61
2022/09/15 15:58:17;;;;;;;;;;;;;;;;;;5075660;28;20695;-61
2022/09/15 16:00:43;;;;;;;;;;;;;;;;;;5078327;28;19920;-61
2022/09/15 16:03:08;;;;;;;;;;;;;;;;;;5079630;28;19973;-61
2022/09/15 16:05:33;;;;;;;;;;;;;;;;;;5081788;28;20015;-61
2022/09/15 16:07:58;;;;;;;;;;;;;;;;;;5084175;28;20014;-61
2022/09/15 16:10:23;;;;;;;;;;;;;;;;;;5084433;28;19932;-61
2022/09/15 16:12:49;;;;;;;;;;;;;;;;;;5083300;28;19927;-61
2022/09/15 16:15:15;;;;;;;;;;;;;;;;;;5084456;28;19965;-61
2022/09/15 16:17:40;;;;;;;;;;;;;;;;;;5084363;28;19960;-62
2022/09/15 16:20:06;;;;;;;;;;;;;;;;;;5082693;28;19962;-62
2022/09/15 16:22:31;;;;;;;;;;;;;;;;;;5084336;28;19916;-61
2022/09/15 16:24:57;;;;;;;;;;;;;;;;;;5078690;28;20761;-61
2022/09/15 16:27:22;;;;;;;;;;;;;;;;;;5083927;28;20395;-61
2022/09/15 16:29:47;;;;;;;;;;;;;;;;;;5083048;28;20007;-62
2022/09/15 16:32:12;;;;;;;;;;;;;;;;;;5085397;28;19926;-61